Yanceyville, North Carolina
Current Conditions -  °F | °C
As of 3:53 PM on Tuesday 21 Oct 2014 (Local Time) from KDAN Reporting Station
Broken Clouds Broken Clouds  
Wind Chill: 69°   Ceiling: 8500
Heat Index: 69°   Visibility: 10mi
Dew Point: 45°   Wind: 8mph
Humidity: 42%   Direction: 330°NNW
Pressure: 29.84"   Gusts: NA
Location:  36.4°N, 79.34°W
Report Text: KDAN 211953Z AUTO 33007KT 10SM FEW065 BKN085 21/07 A2984 RMK AO2 SLP096 T02060072
Loading
Personal Weather Stations






























Interactive Weather Map
Tropical Storm Tracking
New forecast layout! Learn more

10-Day Weather Forecast

Advertisements
Track Severe Weather on mobile